sensor_id;sensor_type;location;lat;lon;timestamp;P1;durP1;ratioP1;P2;durP2;ratioP2
22648;SDS011;11491;41.942;24.220;2023-10-31T00:02:00;11.65;;;6.28;;
22648;SDS011;11491;41.942;24.220;2023-10-31T00:04:27;11.18;;;6.28;;
22648;SDS011;11491;41.942;24.220;2023-10-31T00:06:54;14.70;;;7.32;;
22648;SDS011;11491;41.942;24.220;2023-10-31T00:09:20;14.05;;;6.60;;
22648;SDS011;11491;41.942;24.220;2023-10-31T00:11:47;8.98;;;5.85;;
22648;SDS011;11491;41.942;24.220;2023-10-31T00:14:14;9.95;;;4.40;;
22648;SDS011;11491;41.942;24.220;2023-10-31T00:16:40;11.88;;;4.82;;
22648;SDS011;11491;41.942;24.220;2023-10-31T00:19:08;7.72;;;4.50;;
22648;SDS011;11491;41.942;24.220;2023-10-31T00:21:35;10.38;;;5.32;;
22648;SDS011;11491;41.942;24.220;2023-10-31T00:24:02;8.35;;;5.88;;
22648;SDS011;11491;41.942;24.220;2023-10-31T00:26:29;14.25;;;6.57;;
22648;SDS011;11491;41.942;24.220;2023-10-31T00:28:56;11.88;;;7.00;;
22648;SDS011;11491;41.942;24.220;2023-10-31T00:31:22;16.23;;;7.00;;
22648;SDS011;11491;41.942;24.220;2023-10-31T00:33:49;13.73;;;6.30;;
22648;SDS011;11491;41.942;24.220;2023-10-31T00:36:17;9.73;;;6.00;;
22648;SDS011;11491;41.942;24.220;2023-10-31T00:38:44;11.82;;;5.82;;
22648;SDS011;11491;41.942;24.220;2023-10-31T00:41:11;9.52;;;5.80;;
22648;SDS011;11491;41.942;24.220;2023-10-31T00:43:37;13.50;;;6.00;;
22648;SDS011;11491;41.942;24.220;2023-10-31T00:46:04;10.50;;;5.55;;
22648;SDS011;11491;41.942;24.220;2023-10-31T00:48:31;10.25;;;5.10;;
22648;SDS011;11491;41.942;24.220;2023-10-31T00:51:01;11.35;;;5.00;;
22648;SDS011;11491;41.942;24.220;2023-10-31T00:53:30;16.50;;;5.90;;
22648;SDS011;11491;41.942;24.220;2023-10-31T00:55:57;11.35;;;5.72;;
22648;SDS011;11491;41.942;24.220;2023-10-31T00:58:24;11.40;;;5.25;;
22648;SDS011;11491;41.942;24.220;2023-10-31T01:00:51;12.27;;;5.45;;
22648;SDS011;11491;41.942;24.220;2023-10-31T01:03:17;8.10;;;4.50;;
22648;SDS011;11491;41.942;24.220;2023-10-31T01:05:44;16.92;;;6.00;;
22648;SDS011;11491;41.942;24.220;2023-10-31T01:08:11;10.48;;;5.85;;
22648;SDS011;11491;41.942;24.220;2023-10-31T01:10:39;10.13;;;5.78;;
22648;SDS011;11491;41.942;24.220;2023-10-31T01:13:06;11.05;;;5.68;;
22648;SDS011;11491;41.942;24.220;2023-10-31T01:15:32;12.38;;;5.40;;
22648;SDS011;11491;41.942;24.220;2023-10-31T01:17:59;12.38;;;5.40;;
22648;SDS011;11491;41.942;24.220;2023-10-31T01:20:27;7.38;;;4.50;;
22648;SDS011;11491;41.942;24.220;2023-10-31T01:22:53;12.57;;;5.13;;
22648;SDS011;11491;41.942;24.220;2023-10-31T01:25:20;11.50;;;5.90;;
22648;SDS011;11491;41.942;24.220;2023-10-31T01:27:48;9.85;;;5.35;;
22648;SDS011;11491;41.942;24.220;2023-10-31T01:30:15;11.50;;;5.70;;
22648;SDS011;11491;41.942;24.220;2023-10-31T01:32:42;7.88;;;5.03;;
22648;SDS011;11491;41.942;24.220;2023-10-31T01:35:08;7.05;;;3.80;;
22648;SDS011;11491;41.942;24.220;2023-10-31T01:37:35;9.93;;;5.10;;
22648;SDS011;11491;41.942;24.220;2023-10-31T01:40:04;9.30;;;5.63;;
22648;SDS011;11491;41.942;24.220;2023-10-31T01:42:32;8.57;;;5.43;;
22648;SDS011;11491;41.942;24.220;2023-10-31T01:45:00;12.30;;;5.18;;
22648;SDS011;11491;41.942;24.220;2023-10-31T01:47:29;7.88;;;5.03;;
22648;SDS011;11491;41.942;24.220;2023-10-31T01:49:56;9.70;;;5.70;;
22648;SDS011;11491;41.942;24.220;2023-10-31T01:52:23;8.23;;;4.60;;
22648;SDS011;11491;41.942;24.220;2023-10-31T01:54:50;8.23;;;4.93;;
22648;SDS011;11491;41.942;24.220;2023-10-31T01:57:17;8.73;;;4.88;;
22648;SDS011;11491;41.942;24.220;2023-10-31T01:59:47;5.75;;;4.07;;
22648;SDS011;11491;41.942;24.220;2023-10-31T02:02:16;8.52;;;4.45;;
22648;SDS011;11491;41.942;24.220;2023-10-31T02:04:42;7.93;;;4.28;;
22648;SDS011;11491;41.942;24.220;2023-10-31T02:07:10;7.10;;;3.78;;
22648;SDS011;11491;41.942;24.220;2023-10-31T02:09:37;7.47;;;3.72;;
22648;SDS011;11491;41.942;24.220;2023-10-31T02:12:04;7.70;;;3.85;;
22648;SDS011;11491;41.942;24.220;2023-10-31T02:14:31;5.30;;;3.33;;
22648;SDS011;11491;41.942;24.220;2023-10-31T02:16:57;5.63;;;3.38;;
22648;SDS011;11491;41.942;24.220;2023-10-31T02:19:26;6.40;;;3.10;;
22648;SDS011;11491;41.942;24.220;2023-10-31T02:21:54;4.82;;;2.95;;
22648;SDS011;11491;41.942;24.220;2023-10-31T02:24:21;6.85;;;3.13;;
22648;SDS011;11491;41.942;24.220;2023-10-31T02:26:48;4.70;;;3.45;;
22648;SDS011;11491;41.942;24.220;2023-10-31T02:29:15;5.85;;;3.58;;
22648;SDS011;11491;41.942;24.220;2023-10-31T02:31:41;9.73;;;3.88;;
22648;SDS011;11491;41.942;24.220;2023-10-31T02:34:08;5.75;;;3.40;;
22648;SDS011;11491;41.942;24.220;2023-10-31T02:36:35;9.32;;;4.03;;
22648;SDS011;11491;41.942;24.220;2023-10-31T02:39:03;6.68;;;3.67;;
22648;SDS011;11491;41.942;24.220;2023-10-31T02:41:30;5.25;;;3.40;;
22648;SDS011;11491;41.942;24.220;2023-10-31T02:43:56;8.10;;;3.20;;
22648;SDS011;11491;41.942;24.220;2023-10-31T02:46:23;5.40;;;3.20;;
22648;SDS011;11491;41.942;24.220;2023-10-31T02:48:50;4.22;;;2.85;;
22648;SDS011;11491;41.942;24.220;2023-10-31T02:51:16;5.30;;;2.92;;
22648;SDS011;11491;41.942;24.220;2023-10-31T02:53:43;3.75;;;2.97;;
22648;SDS011;11491;41.942;24.220;2023-10-31T02:56:11;8.00;;;3.17;;
22648;SDS011;11491;41.942;24.220;2023-10-31T02:58:38;4.45;;;2.97;;
22648;SDS011;11491;41.942;24.220;2023-10-31T03:01:05;4.90;;;3.00;;
22648;SDS011;11491;41.942;24.220;2023-10-31T03:03:31;5.55;;;3.10;;
22648;SDS011;11491;41.942;24.220;2023-10-31T03:05:58;5.20;;;3.67;;
22648;SDS011;11491;41.942;24.220;2023-10-31T03:08:26;7.82;;;4.28;;
22648;SDS011;11491;41.942;24.220;2023-10-31T03:10:53;7.80;;;3.90;;
22648;SDS011;11491;41.942;24.220;2023-10-31T03:13:21;4.63;;;3.40;;
22648;SDS011;11491;41.942;24.220;2023-10-31T03:15:48;8.10;;;3.97;;
22648;SDS011;11491;41.942;24.220;2023-10-31T03:18:15;5.55;;;3.60;;
22648;SDS011;11491;41.942;24.220;2023-10-31T03:20:43;6.15;;;3.78;;
22648;SDS011;11491;41.942;24.220;2023-10-31T03:23:11;5.65;;;3.53;;
22648;SDS011;11491;41.942;24.220;2023-10-31T03:25:37;6.05;;;3.92;;
22648;SDS011;11491;41.942;24.220;2023-10-31T03:28:07;10.10;;;3.95;;
22648;SDS011;11491;41.942;24.220;2023-10-31T03:30:44;7.47;;;3.28;;
22648;SDS011;11491;41.942;24.220;2023-10-31T03:33:11;5.40;;;3.00;;
22648;SDS011;11491;41.942;24.220;2023-10-31T03:35:38;7.50;;;4.15;;
22648;SDS011;11491;41.942;24.220;2023-10-31T03:38:05;7.97;;;4.55;;
22648;SDS011;11491;41.942;24.220;2023-10-31T03:40:32;6.05;;;3.95;;
22648;SDS011;11491;41.942;24.220;2023-10-31T03:42:58;7.40;;;3.53;;
22648;SDS011;11491;41.942;24.220;2023-10-31T03:45:25;4.47;;;3.20;;
22648;SDS011;11491;41.942;24.220;2023-10-31T03:47:53;4.35;;;3.35;;
22648;SDS011;11491;41.942;24.220;2023-10-31T03:50:20;5.50;;;3.85;;
22648;SDS011;11491;41.942;24.220;2023-10-31T03:52:47;6.55;;;3.72;;
22648;SDS011;11491;41.942;24.220;2023-10-31T03:55:13;6.82;;;3.10;;
22648;SDS011;11491;41.942;24.220;2023-10-31T03:57:40;5.43;;;3.42;;
22648;SDS011;11491;41.942;24.220;2023-10-31T04:00:07;5.57;;;3.20;;
22648;SDS011;11491;41.942;24.220;2023-10-31T04:02:36;6.05;;;3.50;;
22648;SDS011;11491;41.942;24.220;2023-10-31T04:05:05;4.60;;;2.80;;
22648;SDS011;11491;41.942;24.220;2023-10-31T04:07:32;6.85;;;3.03;;
22648;SDS011;11491;41.942;24.220;2023-10-31T04:09:59;6.93;;;4.13;;
22648;SDS011;11491;41.942;24.220;2023-10-31T04:12:26;6.43;;;3.78;;
22648;SDS011;11491;41.942;24.220;2023-10-31T04:14:52;4.60;;;3.00;;
22648;SDS011;11491;41.942;24.220;2023-10-31T04:17:19;4.47;;;3.72;;
22648;SDS011;11491;41.942;24.220;2023-10-31T04:19:46;7.30;;;3.78;;
22648;SDS011;11491;41.942;24.220;2023-10-31T04:22:14;5.43;;;4.13;;
22648;SDS011;11491;41.942;24.220;2023-10-31T04:24:40;6.22;;;4.13;;
22648;SDS011;11491;41.942;24.220;2023-10-31T04:27:07;8.50;;;5.20;;
22648;SDS011;11491;41.942;24.220;2023-10-31T04:29:34;4.68;;;3.83;;
22648;SDS011;11491;41.942;24.220;2023-10-31T04:32:01;6.50;;;3.65;;
22648;SDS011;11491;41.942;24.220;2023-10-31T04:34:28;15.15;;;11.43;;
22648;SDS011;11491;41.942;24.220;2023-10-31T04:36:54;11.93;;;8.50;;
22648;SDS011;11491;41.942;24.220;2023-10-31T04:39:23;6.03;;;4.07;;
22648;SDS011;11491;41.942;24.220;2023-10-31T04:41:50;8.57;;;4.82;;
22648;SDS011;11491;41.942;24.220;2023-10-31T04:44:17;5.60;;;4.15;;
22648;SDS011;11491;41.942;24.220;2023-10-31T04:46:43;6.10;;;4.90;;
22648;SDS011;11491;41.942;24.220;2023-10-31T04:49:10;4.97;;;3.22;;
22648;SDS011;11491;41.942;24.220;2023-10-31T04:51:37;24.15;;;15.30;;
22648;SDS011;11491;41.942;24.220;2023-10-31T04:54:04;18.67;;;14.43;;
22648;SDS011;11491;41.942;24.220;2023-10-31T04:56:33;19.00;;;13.70;;
22648;SDS011;11491;41.942;24.220;2023-10-31T04:59:00;15.40;;;13.35;;
22648;SDS011;11491;41.942;24.220;2023-10-31T05:01:26;15.10;;;11.93;;
22648;SDS011;11491;41.942;24.220;2023-10-31T05:03:53;12.73;;;9.70;;
22648;SDS011;11491;41.942;24.220;2023-10-31T05:06:20;10.20;;;7.15;;
22648;SDS011;11491;41.942;24.220;2023-10-31T05:08:48;10.18;;;6.38;;
22648;SDS011;11491;41.942;24.220;2023-10-31T05:11:16;14.45;;;8.70;;
22648;SDS011;11491;41.942;24.220;2023-10-31T05:13:44;8.52;;;5.10;;
22648;SDS011;11491;41.942;24.220;2023-10-31T05:16:11;11.85;;;9.98;;
22648;SDS011;11491;41.942;24.220;2023-10-31T05:18:38;14.65;;;11.63;;
22648;SDS011;11491;41.942;24.220;2023-10-31T05:21:05;19.25;;;14.07;;
22648;SDS011;11491;41.942;24.220;2023-10-31T05:23:32;26.38;;;16.00;;
22648;SDS011;11491;41.942;24.220;2023-10-31T05:25:59;24.90;;;16.65;;
22648;SDS011;11491;41.942;24.220;2023-10-31T05:28:25;19.05;;;13.93;;
22648;SDS011;11491;41.942;24.220;2023-10-31T05:30:53;21.30;;;15.57;;
22648;SDS011;11491;41.942;24.220;2023-10-31T05:33:20;20.23;;;14.30;;
22648;SDS011;11491;41.942;24.220;2023-10-31T05:35:48;22.45;;;18.55;;
22648;SDS011;11491;41.942;24.220;2023-10-31T05:38:15;19.33;;;16.00;;
22648;SDS011;11491;41.942;24.220;2023-10-31T05:40:42;19.33;;;14.70;;
22648;SDS011;11491;41.942;24.220;2023-10-31T05:43:09;21.52;;;15.43;;
22648;SDS011;11491;41.942;24.220;2023-10-31T05:45:35;20.27;;;16.58;;
22648;SDS011;11491;41.942;24.220;2023-10-31T05:48:04;34.35;;;26.85;;
22648;SDS011;11491;41.942;24.220;2023-10-31T05:50:31;18.95;;;14.82;;
22648;SDS011;11491;41.942;24.220;2023-10-31T05:52:57;27.30;;;20.40;;
22648;SDS011;11491;41.942;24.220;2023-10-31T05:55:24;25.20;;;17.80;;
22648;SDS011;11491;41.942;24.220;2023-10-31T05:57:51;17.08;;;14.57;;
22648;SDS011;11491;41.942;24.220;2023-10-31T06:00:18;36.47;;;30.77;;
22648;SDS011;11491;41.942;24.220;2023-10-31T06:02:45;25.25;;;22.70;;
22648;SDS011;11491;41.942;24.220;2023-10-31T06:05:13;26.05;;;21.42;;
22648;SDS011;11491;41.942;24.220;2023-10-31T06:07:39;20.17;;;12.43;;
22648;SDS011;11491;41.942;24.220;2023-10-31T06:10:07;15.13;;;13.18;;
22648;SDS011;11491;41.942;24.220;2023-10-31T06:12:34;17.60;;;15.32;;
22648;SDS011;11491;41.942;24.220;2023-10-31T06:15:01;23.45;;;17.58;;
22648;SDS011;11491;41.942;24.220;2023-10-31T06:17:28;26.70;;;21.33;;
22648;SDS011;11491;41.942;24.220;2023-10-31T06:19:58;35.60;;;27.48;;
22648;SDS011;11491;41.942;24.220;2023-10-31T06:22:26;28.77;;;22.05;;
22648;SDS011;11491;41.942;24.220;2023-10-31T06:24:53;19.17;;;15.27;;
22648;SDS011;11491;41.942;24.220;2023-10-31T06:27:20;15.82;;;12.23;;
22648;SDS011;11491;41.942;24.220;2023-10-31T06:29:46;18.58;;;13.70;;
22648;SDS011;11491;41.942;24.220;2023-10-31T06:32:13;21.73;;;17.13;;
22648;SDS011;11491;41.942;24.220;2023-10-31T06:34:40;19.75;;;16.33;;
22648;SDS011;11491;41.942;24.220;2023-10-31T06:37:06;35.55;;;27.02;;
22648;SDS011;11491;41.942;24.220;2023-10-31T06:39:34;36.42;;;26.02;;
22648;SDS011;11491;41.942;24.220;2023-10-31T06:42:01;29.00;;;24.00;;
22648;SDS011;11491;41.942;24.220;2023-10-31T06:44:28;28.20;;;21.10;;
22648;SDS011;11491;41.942;24.220;2023-10-31T06:46:55;31.98;;;26.42;;
22648;SDS011;11491;41.942;24.220;2023-10-31T06:49:21;33.85;;;27.70;;
22648;SDS011;11491;41.942;24.220;2023-10-31T06:51:49;37.45;;;29.80;;
22648;SDS011;11491;41.942;24.220;2023-10-31T06:54:15;47.03;;;31.05;;
22648;SDS011;11491;41.942;24.220;2023-10-31T06:56:43;32.95;;;23.08;;
22648;SDS011;11491;41.942;24.220;2023-10-31T06:59:10;22.85;;;15.68;;
22648;SDS011;11491;41.942;24.220;2023-10-31T07:01:37;15.82;;;10.68;;
22648;SDS011;11491;41.942;24.220;2023-10-31T07:04:04;10.75;;;6.47;;
22648;SDS011;11491;41.942;24.220;2023-10-31T07:06:31;6.70;;;4.72;;
22648;SDS011;11491;41.942;24.220;2023-10-31T07:08:58;13.25;;;9.50;;
22648;SDS011;11491;41.942;24.220;2023-10-31T07:11:29;6.43;;;4.80;;
22648;SDS011;11491;41.942;24.220;2023-10-31T07:14:00;9.75;;;5.93;;
22648;SDS011;11491;41.942;24.220;2023-10-31T07:16:27;6.90;;;4.03;;
22648;SDS011;11491;41.942;24.220;2023-10-31T07:18:53;4.50;;;2.78;;
22648;SDS011;11491;41.942;24.220;2023-10-31T07:21:20;5.85;;;4.40;;
22648;SDS011;11491;41.942;24.220;2023-10-31T07:23:47;3.53;;;1.20;;
22648;SDS011;11491;41.942;24.220;2023-10-31T07:26:14;3.67;;;1.15;;
22648;SDS011;11491;41.942;24.220;2023-10-31T07:28:40;4.53;;;1.80;;
22648;SDS011;11491;41.942;24.220;2023-10-31T07:31:09;6.82;;;1.70;;
22648;SDS011;11491;41.942;24.220;2023-10-31T07:33:36;9.00;;;6.18;;
22648;SDS011;11491;41.942;24.220;2023-10-31T07:36:03;10.65;;;5.30;;
22648;SDS011;11491;41.942;24.220;2023-10-31T07:38:30;8.43;;;4.00;;
22648;SDS011;11491;41.942;24.220;2023-10-31T07:40:58;8.13;;;3.20;;
22648;SDS011;11491;41.942;24.220;2023-10-31T07:43:25;4.65;;;2.55;;
22648;SDS011;11491;41.942;24.220;2023-10-31T07:45:52;3.78;;;2.60;;
22648;SDS011;11491;41.942;24.220;2023-10-31T07:48:20;4.60;;;3.40;;
22648;SDS011;11491;41.942;24.220;2023-10-31T07:50:46;3.92;;;2.25;;
22648;SDS011;11491;41.942;24.220;2023-10-31T07:53:13;1.85;;;0.90;;
22648;SDS011;11491;41.942;24.220;2023-10-31T07:55:40;5.03;;;1.50;;
22648;SDS011;11491;41.942;24.220;2023-10-31T07:58:07;2.42;;;0.75;;
22648;SDS011;11491;41.942;24.220;2023-10-31T08:00:34;2.03;;;0.70;;
22648;SDS011;11491;41.942;24.220;2023-10-31T08:03:01;5.07;;;1.00;;
22648;SDS011;11491;41.942;24.220;2023-10-31T08:05:30;3.05;;;0.88;;
22648;SDS011;11491;41.942;24.220;2023-10-31T08:07:56;5.63;;;2.75;;
22648;SDS011;11491;41.942;24.220;2023-10-31T08:10:23;4.10;;;2.80;;
22648;SDS011;11491;41.942;24.220;2023-10-31T08:12:50;3.70;;;1.55;;
22648;SDS011;11491;41.942;24.220;2023-10-31T08:15:17;3.30;;;1.85;;
22648;SDS011;11491;41.942;24.220;2023-10-31T08:17:43;2.60;;;0.80;;
22648;SDS011;11491;41.942;24.220;2023-10-31T08:20:10;0.82;;;0.52;;
22648;SDS011;11491;41.942;24.220;2023-10-31T08:22:39;4.50;;;0.82;;
22648;SDS011;11491;41.942;24.220;2023-10-31T08:25:07;2.60;;;0.80;;
22648;SDS011;11491;41.942;24.220;2023-10-31T08:27:34;2.03;;;1.00;;
22648;SDS011;11491;41.942;24.220;2023-10-31T08:30:01;6.55;;;1.17;;
22648;SDS011;11491;41.942;24.220;2023-10-31T08:32:31;3.05;;;1.00;;
22648;SDS011;11491;41.942;24.220;2023-10-31T08:34:57;1.95;;;0.68;;
22648;SDS011;11491;41.942;24.220;2023-10-31T08:37:25;2.13;;;1.00;;
22648;SDS011;11491;41.942;24.220;2023-10-31T08:39:53;2.60;;;1.13;;
22648;SDS011;11491;41.942;24.220;2023-10-31T08:42:20;1.95;;;1.27;;
22648;SDS011;11491;41.942;24.220;2023-10-31T08:44:46;2.58;;;1.30;;
22648;SDS011;11491;41.942;24.220;2023-10-31T08:47:13;4.03;;;0.73;;
22648;SDS011;11491;41.942;24.220;2023-10-31T08:49:40;5.00;;;0.63;;
22648;SDS011;11491;41.942;24.220;2023-10-31T08:52:07;3.20;;;1.10;;
22648;SDS011;11491;41.942;24.220;2023-10-31T08:54:33;4.40;;;0.80;;
22648;SDS011;11491;41.942;24.220;2023-10-31T08:57:01;1.55;;;0.80;;
22648;SDS011;11491;41.942;24.220;2023-10-31T08:59:28;2.78;;;0.70;;
22648;SDS011;11491;41.942;24.220;2023-10-31T09:01:55;2.70;;;0.57;;
22648;SDS011;11491;41.942;24.220;2023-10-31T09:04:22;2.17;;;0.85;;
22648;SDS011;11491;41.942;24.220;2023-10-31T09:06:48;1.92;;;0.80;;
22648;SDS011;11491;41.942;24.220;2023-10-31T09:09:15;2.45;;;0.75;;
22648;SDS011;11491;41.942;24.220;2023-10-31T09:11:42;4.68;;;0.73;;
22648;SDS011;11491;41.942;24.220;2023-10-31T09:14:10;1.27;;;0.50;;
22648;SDS011;11491;41.942;24.220;2023-10-31T09:16:37;2.28;;;0.75;;
22648;SDS011;11491;41.942;24.220;2023-10-31T09:19:03;2.30;;;0.60;;
22648;SDS011;11491;41.942;24.220;2023-10-31T09:21:30;4.00;;;1.27;;
22648;SDS011;11491;41.942;24.220;2023-10-31T09:23:57;3.30;;;2.05;;
22648;SDS011;11491;41.942;24.220;2023-10-31T09:26:23;3.00;;;0.70;;
22648;SDS011;11491;41.942;24.220;2023-10-31T09:28:50;3.22;;;1.30;;
22648;SDS011;11491;41.942;24.220;2023-10-31T09:31:18;6.22;;;1.52;;
22648;SDS011;11491;41.942;24.220;2023-10-31T09:33:45;5.68;;;1.52;;
22648;SDS011;11491;41.942;24.220;2023-10-31T09:36:12;2.72;;;1.30;;
22648;SDS011;11491;41.942;24.220;2023-10-31T09:38:39;3.20;;;1.17;;
22648;SDS011;11491;41.942;24.220;2023-10-31T09:41:06;1.77;;;0.90;;
22648;SDS011;11491;41.942;24.220;2023-10-31T09:43:33;3.58;;;0.90;;
22648;SDS011;11491;41.942;24.220;2023-10-31T09:46:00;2.20;;;0.90;;
22648;SDS011;11491;41.942;24.220;2023-10-31T09:48:30;2.17;;;1.38;;
22648;SDS011;11491;41.942;24.220;2023-10-31T09:50:57;5.85;;;1.88;;
22648;SDS011;11491;41.942;24.220;2023-10-31T09:53:24;1.35;;;0.73;;
22648;SDS011;11491;41.942;24.220;2023-10-31T09:55:53;2.40;;;0.70;;
22648;SDS011;11491;41.942;24.220;2023-10-31T09:58:21;1.45;;;0.70;;
22648;SDS011;11491;41.942;24.220;2023-10-31T10:00:48;2.47;;;1.10;;
22648;SDS011;11491;41.942;24.220;2023-10-31T10:03:14;2.08;;;1.20;;
22648;SDS011;11491;41.942;24.220;2023-10-31T10:05:44;1.20;;;0.93;;
22648;SDS011;11491;41.942;24.220;2023-10-31T10:08:12;2.30;;;1.00;;
22648;SDS011;11491;41.942;24.220;2023-10-31T10:10:41;2.60;;;1.20;;
22648;SDS011;11491;41.942;24.220;2023-10-31T10:13:08;2.00;;;1.17;;
22648;SDS011;11491;41.942;24.220;2023-10-31T10:15:43;3.58;;;1.60;;
22648;SDS011;11491;41.942;24.220;2023-10-31T10:18:10;2.28;;;1.20;;
22648;SDS011;11491;41.942;24.220;2023-10-31T10:20:38;2.85;;;1.48;;
22648;SDS011;11491;41.942;24.220;2023-10-31T10:23:22;5.63;;;2.00;;
22648;SDS011;11491;41.942;24.220;2023-10-31T10:25:49;2.08;;;1.27;;
22648;SDS011;11491;41.942;24.220;2023-10-31T10:28:16;4.22;;;1.83;;
22648;SDS011;11491;41.942;24.220;2023-10-31T10:30:44;1.85;;;0.95;;
22648;SDS011;11491;41.942;24.220;2023-10-31T10:33:11;3.83;;;1.27;;
22648;SDS011;11491;41.942;24.220;2023-10-31T10:35:38;2.63;;;0.93;;
22648;SDS011;11491;41.942;24.220;2023-10-31T10:38:06;2.25;;;0.80;;
22648;SDS011;11491;41.942;24.220;2023-10-31T10:40:38;1.75;;;0.93;;
22648;SDS011;11491;41.942;24.220;2023-10-31T10:43:07;1.45;;;0.88;;
22648;SDS011;11491;41.942;24.220;2023-10-31T10:45:38;1.67;;;0.60;;
22648;SDS011;11491;41.942;24.220;2023-10-31T10:48:10;2.20;;;0.82;;
22648;SDS011;11491;41.942;24.220;2023-10-31T10:50:40;5.55;;;3.00;;
22648;SDS011;11491;41.942;24.220;2023-10-31T10:53:13;2.22;;;0.95;;
22648;SDS011;11491;41.942;24.220;2023-10-31T10:55:50;1.70;;;0.88;;
22648;SDS011;11491;41.942;24.220;2023-10-31T10:58:20;2.15;;;0.50;;
22648;SDS011;11491;41.942;24.220;2023-10-31T11:00:54;1.10;;;0.57;;
22648;SDS011;11491;41.942;24.220;2023-10-31T11:03:23;1.10;;;0.65;;
22648;SDS011;11491;41.942;24.220;2023-10-31T11:05:50;2.35;;;0.82;;
22648;SDS011;11491;41.942;24.220;2023-10-31T11:08:19;3.53;;;1.48;;
22648;SDS011;11491;41.942;24.220;2023-10-31T11:10:47;2.63;;;0.80;;
22648;SDS011;11491;41.942;24.220;2023-10-31T11:13:15;1.60;;;0.93;;
22648;SDS011;11491;41.942;24.220;2023-10-31T11:15:41;1.35;;;0.60;;
22648;SDS011;11491;41.942;24.220;2023-10-31T11:18:09;1.02;;;0.50;;
22648;SDS011;11491;41.942;24.220;2023-10-31T11:20:37;2.20;;;1.00;;
22648;SDS011;11491;41.942;24.220;2023-10-31T11:23:05;2.17;;;0.60;;
22648;SDS011;11491;41.942;24.220;2023-10-31T11:25:33;1.17;;;0.50;;
22648;SDS011;11491;41.942;24.220;2023-10-31T11:28:12;1.90;;;1.10;;
22648;SDS011;11491;41.942;24.220;2023-10-31T11:30:40;3.40;;;0.95;;
22648;SDS011;11491;41.942;24.220;2023-10-31T11:33:11;2.10;;;0.85;;
22648;SDS011;11491;41.942;24.220;2023-10-31T11:35:39;2.72;;;0.77;;
22648;SDS011;11491;41.942;24.220;2023-10-31T11:38:07;3.63;;;0.70;;
22648;SDS011;11491;41.942;24.220;2023-10-31T11:40:38;0.90;;;0.50;;
22648;SDS011;11491;41.942;24.220;2023-10-31T11:43:25;1.63;;;0.80;;
22648;SDS011;11491;41.942;24.220;2023-10-31T11:45:52;1.73;;;0.60;;
22648;SDS011;11491;41.942;24.220;2023-10-31T11:48:44;2.03;;;0.77;;
22648;SDS011;11491;41.942;24.220;2023-10-31T11:51:11;1.00;;;0.57;;
22648;SDS011;11491;41.942;24.220;2023-10-31T11:53:39;2.60;;;0.85;;
22648;SDS011;11491;41.942;24.220;2023-10-31T11:56:07;0.95;;;0.43;;
22648;SDS011;11491;41.942;24.220;2023-10-31T11:58:36;3.33;;;0.80;;
22648;SDS011;11491;41.942;24.220;2023-10-31T12:01:03;1.70;;;0.65;;
22648;SDS011;11491;41.942;24.220;2023-10-31T12:03:36;2.05;;;0.70;;
22648;SDS011;11491;41.942;24.220;2023-10-31T12:06:04;1.42;;;0.77;;
22648;SDS011;11491;41.942;24.220;2023-10-31T12:08:31;1.88;;;0.63;;
22648;SDS011;11491;41.942;24.220;2023-10-31T12:11:03;4.18;;;0.80;;
22648;SDS011;11491;41.942;24.220;2023-10-31T12:13:32;1.58;;;0.80;;
22648;SDS011;11491;41.942;24.220;2023-10-31T12:16:00;4.38;;;1.00;;
22648;SDS011;11491;41.942;24.220;2023-10-31T12:18:27;3.00;;;1.45;;
22648;SDS011;11491;41.942;24.220;2023-10-31T12:20:54;1.92;;;0.75;;
22648;SDS011;11491;41.942;24.220;2023-10-31T12:23:22;1.98;;;0.70;;
22648;SDS011;11491;41.942;24.220;2023-10-31T12:25:48;4.97;;;1.20;;
22648;SDS011;11491;41.942;24.220;2023-10-31T12:28:16;4.75;;;0.70;;
22648;SDS011;11491;41.942;24.220;2023-10-31T12:30:45;2.50;;;0.85;;
22648;SDS011;11491;41.942;24.220;2023-10-31T12:33:13;3.63;;;2.45;;
22648;SDS011;11491;41.942;24.220;2023-10-31T12:35:40;4.57;;;2.63;;
22648;SDS011;11491;41.942;24.220;2023-10-31T12:38:07;6.32;;;3.88;;
22648;SDS011;11491;41.942;24.220;2023-10-31T12:40:37;2.50;;;2.05;;
22648;SDS011;11491;41.942;24.220;2023-10-31T12:43:04;1.77;;;0.88;;
22648;SDS011;11491;41.942;24.220;2023-10-31T12:45:31;3.92;;;1.75;;
22648;SDS011;11491;41.942;24.220;2023-10-31T12:48:03;4.75;;;1.35;;
22648;SDS011;11491;41.942;24.220;2023-10-31T12:50:31;22.60;;;13.32;;
22648;SDS011;11491;41.942;24.220;2023-10-31T12:52:58;4.13;;;2.05;;
22648;SDS011;11491;41.942;24.220;2023-10-31T12:55:25;5.30;;;2.38;;
22648;SDS011;11491;41.942;24.220;2023-10-31T12:57:54;5.57;;;1.20;;
22648;SDS011;11491;41.942;24.220;2023-10-31T13:00:22;3.72;;;1.58;;
22648;SDS011;11491;41.942;24.220;2023-10-31T13:02:58;4.10;;;1.20;;
22648;SDS011;11491;41.942;24.220;2023-10-31T13:05:28;3.97;;;1.10;;
22648;SDS011;11491;41.942;24.220;2023-10-31T13:07:55;2.97;;;1.17;;
22648;SDS011;11491;41.942;24.220;2023-10-31T13:10:25;3.75;;;0.93;;
22648;SDS011;11491;41.942;24.220;2023-10-31T13:12:53;4.75;;;2.13;;
22648;SDS011;11491;41.942;24.220;2023-10-31T13:15:20;4.50;;;2.15;;
22648;SDS011;11491;41.942;24.220;2023-10-31T13:17:48;4.50;;;1.15;;
22648;SDS011;11491;41.942;24.220;2023-10-31T13:20:15;3.15;;;1.40;;
22648;SDS011;11491;41.942;24.220;2023-10-31T13:22:45;2.75;;;1.20;;
22648;SDS011;11491;41.942;24.220;2023-10-31T13:25:12;7.05;;;1.23;;
22648;SDS011;11491;41.942;24.220;2023-10-31T13:27:40;6.95;;;0.98;;
22648;SDS011;11491;41.942;24.220;2023-10-31T13:30:09;4.75;;;1.35;;
22648;SDS011;11491;41.942;24.220;2023-10-31T13:32:37;4.40;;;1.10;;
22648;SDS011;11491;41.942;24.220;2023-10-31T13:35:04;2.95;;;1.17;;
22648;SDS011;11491;41.942;24.220;2023-10-31T13:37:31;3.13;;;1.05;;
22648;SDS011;11491;41.942;24.220;2023-10-31T13:40:00;4.40;;;2.80;;
22648;SDS011;11491;41.942;24.220;2023-10-31T13:42:29;7.82;;;3.35;;
22648;SDS011;11491;41.942;24.220;2023-10-31T13:44:56;4.80;;;2.00;;
22648;SDS011;11491;41.942;24.220;2023-10-31T13:47:22;6.45;;;1.92;;
22648;SDS011;11491;41.942;24.220;2023-10-31T13:49:49;6.07;;;2.38;;
22648;SDS011;11491;41.942;24.220;2023-10-31T13:52:16;18.35;;;16.40;;
22648;SDS011;11491;41.942;24.220;2023-10-31T13:54:43;18.55;;;13.25;;
22648;SDS011;11491;41.942;24.220;2023-10-31T13:57:11;9.98;;;5.40;;
22648;SDS011;11491;41.942;24.220;2023-10-31T13:59:39;9.18;;;4.50;;
22648;SDS011;11491;41.942;24.220;2023-10-31T14:02:06;8.85;;;6.63;;
22648;SDS011;11491;41.942;24.220;2023-10-31T14:04:32;9.25;;;4.93;;
22648;SDS011;11491;41.942;24.220;2023-10-31T14:06:59;7.50;;;4.57;;
22648;SDS011;11491;41.942;24.220;2023-10-31T14:09:26;5.78;;;3.83;;
22648;SDS011;11491;41.942;24.220;2023-10-31T14:11:53;4.80;;;1.10;;
22648;SDS011;11491;41.942;24.220;2023-10-31T14:14:21;6.53;;;3.15;;
22648;SDS011;11491;41.942;24.220;2023-10-31T14:16:47;5.72;;;2.58;;
22648;SDS011;11491;41.942;24.220;2023-10-31T14:19:14;4.93;;;1.90;;
22648;SDS011;11491;41.942;24.220;2023-10-31T14:21:43;5.65;;;3.15;;
22648;SDS011;11491;41.942;24.220;2023-10-31T14:24:09;8.88;;;5.30;;
22648;SDS011;11491;41.942;24.220;2023-10-31T14:26:36;6.07;;;1.83;;
22648;SDS011;11491;41.942;24.220;2023-10-31T14:29:05;9.60;;;5.57;;
22648;SDS011;11491;41.942;24.220;2023-10-31T14:31:37;6.32;;;3.90;;